sensor_id;sensor_type;location;lat;lon;timestamp;P1;durP1;ratioP1;P2;durP2;ratioP2
74415;SDS011;62850;42.428;25.618;2023-03-14T00:00:36;4.18;;;1.48;;
74415;SDS011;62850;42.428;25.618;2023-03-14T00:03:01;4.28;;;1.20;;
74415;SDS011;62850;42.428;25.618;2023-03-14T00:05:27;3.42;;;1.50;;
74415;SDS011;62850;42.428;25.618;2023-03-14T00:07:52;2.53;;;1.20;;
74415;SDS011;62850;42.428;25.618;2023-03-14T00:10:18;3.45;;;1.38;;
74415;SDS011;62850;42.428;25.618;2023-03-14T00:12:44;3.45;;;1.50;;
74415;SDS011;62850;42.428;25.618;2023-03-14T00:15:10;5.60;;;1.42;;
74415;SDS011;62850;42.428;25.618;2023-03-14T00:17:36;3.30;;;1.40;;
74415;SDS011;62850;42.428;25.618;2023-03-14T00:20:03;3.78;;;1.17;;
74415;SDS011;62850;42.428;25.618;2023-03-14T00:22:36;3.75;;;1.20;;
74415;SDS011;62850;42.428;25.618;2023-03-14T00:25:03;3.00;;;1.02;;
74415;SDS011;62850;42.428;25.618;2023-03-14T00:27:29;2.17;;;1.08;;
74415;SDS011;62850;42.428;25.618;2023-03-14T00:29:55;3.95;;;1.35;;
74415;SDS011;62850;42.428;25.618;2023-03-14T00:32:20;2.92;;;1.20;;
74415;SDS011;62850;42.428;25.618;2023-03-14T00:34:45;3.80;;;1.30;;
74415;SDS011;62850;42.428;25.618;2023-03-14T00:37:11;6.65;;;1.75;;
74415;SDS011;62850;42.428;25.618;2023-03-14T00:39:36;5.68;;;1.40;;
74415;SDS011;62850;42.428;25.618;2023-03-14T00:42:02;3.45;;;1.27;;
74415;SDS011;62850;42.428;25.618;2023-03-14T00:44:28;3.90;;;1.38;;
74415;SDS011;62850;42.428;25.618;2023-03-14T00:46:53;3.17;;;1.23;;
74415;SDS011;62850;42.428;25.618;2023-03-14T00:49:19;2.95;;;1.50;;
74415;SDS011;62850;42.428;25.618;2023-03-14T00:51:44;3.53;;;1.30;;
74415;SDS011;62850;42.428;25.618;2023-03-14T00:54:09;4.05;;;1.42;;
74415;SDS011;62850;42.428;25.618;2023-03-14T00:56:35;4.88;;;1.67;;
74415;SDS011;62850;42.428;25.618;2023-03-14T00:59:00;3.67;;;1.50;;
74415;SDS011;62850;42.428;25.618;2023-03-14T01:01:26;5.43;;;1.98;;
74415;SDS011;62850;42.428;25.618;2023-03-14T01:03:52;5.30;;;1.67;;
74415;SDS011;62850;42.428;25.618;2023-03-14T01:06:19;3.83;;;1.67;;
74415;SDS011;62850;42.428;25.618;2023-03-14T01:08:46;3.53;;;1.30;;
74415;SDS011;62850;42.428;25.618;2023-03-14T01:11:14;5.30;;;1.33;;
74415;SDS011;62850;42.428;25.618;2023-03-14T01:13:44;2.75;;;1.23;;
74415;SDS011;62850;42.428;25.618;2023-03-14T01:16:10;4.35;;;1.10;;
74415;SDS011;62850;42.428;25.618;2023-03-14T01:18:38;3.60;;;1.23;;
74415;SDS011;62850;42.428;25.618;2023-03-14T01:21:09;2.65;;;1.10;;
74415;SDS011;62850;42.428;25.618;2023-03-14T01:23:36;4.22;;;1.20;;
74415;SDS011;62850;42.428;25.618;2023-03-14T01:26:02;4.00;;;1.30;;
74415;SDS011;62850;42.428;25.618;2023-03-14T01:28:27;4.20;;;1.40;;
74415;SDS011;62850;42.428;25.618;2023-03-14T01:30:53;3.30;;;1.30;;
74415;SDS011;62850;42.428;25.618;2023-03-14T01:33:18;4.05;;;1.20;;
74415;SDS011;62850;42.428;25.618;2023-03-14T01:35:44;3.20;;;1.15;;
74415;SDS011;62850;42.428;25.618;2023-03-14T01:38:09;2.33;;;1.05;;
74415;SDS011;62850;42.428;25.618;2023-03-14T01:40:41;3.15;;;1.20;;
74415;SDS011;62850;42.428;25.618;2023-03-14T01:43:18;3.65;;;1.10;;
74415;SDS011;62850;42.428;25.618;2023-03-14T01:48:23;3.25;;;1.20;;
74415;SDS011;62850;42.428;25.618;2023-03-14T01:50:52;2.42;;;1.00;;
74415;SDS011;62850;42.428;25.618;2023-03-14T01:53:17;2.90;;;1.20;;
74415;SDS011;62850;42.428;25.618;2023-03-14T01:55:46;4.82;;;1.25;;
74415;SDS011;62850;42.428;25.618;2023-03-14T01:58:17;4.10;;;1.55;;
74415;SDS011;62850;42.428;25.618;2023-03-14T02:00:45;5.00;;;1.20;;
74415;SDS011;62850;42.428;25.618;2023-03-14T02:03:12;3.15;;;1.27;;
74415;SDS011;62850;42.428;25.618;2023-03-14T02:05:41;3.28;;;1.25;;
74415;SDS011;62850;42.428;25.618;2023-03-14T02:08:10;3.13;;;1.30;;
74415;SDS011;62850;42.428;25.618;2023-03-14T02:10:39;3.80;;;1.52;;
74415;SDS011;62850;42.428;25.618;2023-03-14T02:13:07;5.63;;;1.40;;
74415;SDS011;62850;42.428;25.618;2023-03-14T02:15:32;3.08;;;1.20;;
74415;SDS011;62850;42.428;25.618;2023-03-14T02:17:59;7.05;;;1.58;;
74415;SDS011;62850;42.428;25.618;2023-03-14T02:23:10;3.00;;;1.20;;
74415;SDS011;62850;42.428;25.618;2023-03-14T02:25:41;3.42;;;1.20;;
74415;SDS011;62850;42.428;25.618;2023-03-14T02:28:13;2.75;;;1.08;;
74415;SDS011;62850;42.428;25.618;2023-03-14T02:30:39;3.25;;;1.10;;
74415;SDS011;62850;42.428;25.618;2023-03-14T02:33:07;2.53;;;1.23;;
74415;SDS011;62850;42.428;25.618;2023-03-14T02:35:36;2.38;;;1.08;;
74415;SDS011;62850;42.428;25.618;2023-03-14T02:38:22;3.85;;;1.25;;
74415;SDS011;62850;42.428;25.618;2023-03-14T02:40:53;2.65;;;1.10;;
74415;SDS011;62850;42.428;25.618;2023-03-14T02:43:19;4.55;;;1.30;;
74415;SDS011;62850;42.428;25.618;2023-03-14T02:45:45;3.53;;;1.17;;
74415;SDS011;62850;42.428;25.618;2023-03-14T02:48:21;6.07;;;1.30;;
74415;SDS011;62850;42.428;25.618;2023-03-14T02:50:50;3.33;;;1.10;;
74415;SDS011;62850;42.428;25.618;2023-03-14T02:53:20;3.63;;;1.20;;
74415;SDS011;62850;42.428;25.618;2023-03-14T02:55:50;3.65;;;1.40;;
74415;SDS011;62850;42.428;25.618;2023-03-14T02:58:15;3.33;;;1.33;;
74415;SDS011;62850;42.428;25.618;2023-03-14T03:00:42;4.38;;;1.45;;
74415;SDS011;62850;42.428;25.618;2023-03-14T03:03:07;5.45;;;1.33;;
74415;SDS011;62850;42.428;25.618;2023-03-14T03:05:33;3.30;;;1.25;;
74415;SDS011;62850;42.428;25.618;2023-03-14T03:07:59;3.88;;;1.20;;
74415;SDS011;62850;42.428;25.618;2023-03-14T03:10:25;5.50;;;1.40;;
74415;SDS011;62850;42.428;25.618;2023-03-14T03:12:51;3.55;;;1.40;;
74415;SDS011;62850;42.428;25.618;2023-03-14T03:15:16;3.75;;;1.30;;
74415;SDS011;62850;42.428;25.618;2023-03-14T03:17:42;4.53;;;1.17;;
74415;SDS011;62850;42.428;25.618;2023-03-14T03:20:08;4.93;;;1.70;;
74415;SDS011;62850;42.428;25.618;2023-03-14T03:22:34;3.17;;;1.40;;
74415;SDS011;62850;42.428;25.618;2023-03-14T03:25:01;2.78;;;1.27;;
74415;SDS011;62850;42.428;25.618;2023-03-14T03:27:26;3.90;;;1.20;;
74415;SDS011;62850;42.428;25.618;2023-03-14T03:29:54;4.00;;;1.33;;
74415;SDS011;62850;42.428;25.618;2023-03-14T03:32:19;5.25;;;1.23;;
74415;SDS011;62850;42.428;25.618;2023-03-14T03:34:45;3.03;;;1.17;;
74415;SDS011;62850;42.428;25.618;2023-03-14T03:37:10;3.30;;;1.30;;
74415;SDS011;62850;42.428;25.618;2023-03-14T03:39:36;2.50;;;1.10;;
74415;SDS011;62850;42.428;25.618;2023-03-14T03:42:01;6.20;;;1.20;;
74415;SDS011;62850;42.428;25.618;2023-03-14T03:44:26;4.03;;;1.23;;
74415;SDS011;62850;42.428;25.618;2023-03-14T03:46:52;3.75;;;1.45;;
74415;SDS011;62850;42.428;25.618;2023-03-14T03:49:18;7.30;;;1.48;;
74415;SDS011;62850;42.428;25.618;2023-03-14T03:51:44;3.65;;;1.45;;
74415;SDS011;62850;42.428;25.618;2023-03-14T03:54:10;4.20;;;1.42;;
74415;SDS011;62850;42.428;25.618;2023-03-14T03:56:35;3.50;;;1.30;;
74415;SDS011;62850;42.428;25.618;2023-03-14T03:59:01;7.47;;;1.40;;
74415;SDS011;62850;42.428;25.618;2023-03-14T04:01:26;6.93;;;1.40;;
74415;SDS011;62850;42.428;25.618;2023-03-14T04:03:52;4.82;;;1.35;;
74415;SDS011;62850;42.428;25.618;2023-03-14T04:06:17;4.18;;;1.40;;
74415;SDS011;62850;42.428;25.618;2023-03-14T04:08:43;3.28;;;1.40;;
74415;SDS011;62850;42.428;25.618;2023-03-14T04:11:09;4.72;;;1.27;;
74415;SDS011;62850;42.428;25.618;2023-03-14T04:13:35;7.75;;;1.60;;
74415;SDS011;62850;42.428;25.618;2023-03-14T04:16:00;8.75;;;1.73;;
74415;SDS011;62850;42.428;25.618;2023-03-14T04:18:26;4.65;;;1.50;;
74415;SDS011;62850;42.428;25.618;2023-03-14T04:20:52;4.80;;;1.83;;
74415;SDS011;62850;42.428;25.618;2023-03-14T04:23:22;5.97;;;2.17;;
74415;SDS011;62850;42.428;25.618;2023-03-14T04:25:51;8.68;;;2.22;;
74415;SDS011;62850;42.428;25.618;2023-03-14T04:28:18;8.43;;;2.83;;
74415;SDS011;62850;42.428;25.618;2023-03-14T04:30:43;7.15;;;2.85;;
74415;SDS011;62850;42.428;25.618;2023-03-14T04:33:09;12.18;;;2.60;;
74415;SDS011;62850;42.428;25.618;2023-03-14T04:35:34;9.13;;;2.47;;
74415;SDS011;62850;42.428;25.618;2023-03-14T04:38:00;9.13;;;2.55;;
74415;SDS011;62850;42.428;25.618;2023-03-14T04:40:26;8.50;;;2.70;;
74415;SDS011;62850;42.428;25.618;2023-03-14T04:42:51;9.43;;;3.13;;
74415;SDS011;62850;42.428;25.618;2023-03-14T04:45:17;8.10;;;2.67;;
74415;SDS011;62850;42.428;25.618;2023-03-14T04:47:42;16.10;;;3.08;;
74415;SDS011;62850;42.428;25.618;2023-03-14T04:50:08;8.07;;;3.05;;
74415;SDS011;62850;42.428;25.618;2023-03-14T04:52:34;5.50;;;2.60;;
74415;SDS011;62850;42.428;25.618;2023-03-14T04:55:00;6.35;;;2.20;;
74415;SDS011;62850;42.428;25.618;2023-03-14T04:57:26;7.75;;;2.20;;
74415;SDS011;62850;42.428;25.618;2023-03-14T04:59:51;6.75;;;1.95;;
74415;SDS011;62850;42.428;25.618;2023-03-14T05:02:16;7.15;;;2.13;;
74415;SDS011;62850;42.428;25.618;2023-03-14T05:04:42;6.93;;;2.70;;
74415;SDS011;62850;42.428;25.618;2023-03-14T05:07:07;14.40;;;2.85;;
74415;SDS011;62850;42.428;25.618;2023-03-14T05:09:33;10.80;;;2.50;;
74415;SDS011;62850;42.428;25.618;2023-03-14T05:11:58;11.23;;;2.58;;
74415;SDS011;62850;42.428;25.618;2023-03-14T05:14:24;6.82;;;2.22;;
74415;SDS011;62850;42.428;25.618;2023-03-14T05:16:49;7.25;;;2.22;;
74415;SDS011;62850;42.428;25.618;2023-03-14T05:19:15;9.25;;;2.53;;
74415;SDS011;62850;42.428;25.618;2023-03-14T05:21:40;5.18;;;2.00;;
74415;SDS011;62850;42.428;25.618;2023-03-14T05:24:06;11.10;;;2.00;;
74415;SDS011;62850;42.428;25.618;2023-03-14T05:26:31;8.60;;;2.33;;
74415;SDS011;62850;42.428;25.618;2023-03-14T05:28:57;10.88;;;1.92;;
74415;SDS011;62850;42.428;25.618;2023-03-14T05:31:22;8.20;;;2.20;;
74415;SDS011;62850;42.428;25.618;2023-03-14T05:33:48;7.22;;;2.08;;
74415;SDS011;62850;42.428;25.618;2023-03-14T05:36:13;4.05;;;2.10;;
74415;SDS011;62850;42.428;25.618;2023-03-14T05:38:39;5.78;;;2.65;;
74415;SDS011;62850;42.428;25.618;2023-03-14T05:41:04;6.80;;;2.35;;
74415;SDS011;62850;42.428;25.618;2023-03-14T05:43:30;7.60;;;2.65;;
74415;SDS011;62850;42.428;25.618;2023-03-14T05:45:55;6.90;;;2.95;;
74415;SDS011;62850;42.428;25.618;2023-03-14T05:48:21;11.25;;;2.75;;
74415;SDS011;62850;42.428;25.618;2023-03-14T05:50:47;15.13;;;3.63;;
74415;SDS011;62850;42.428;25.618;2023-03-14T05:53:15;17.73;;;4.05;;
74415;SDS011;62850;42.428;25.618;2023-03-14T05:55:41;14.75;;;4.25;;
74415;SDS011;62850;42.428;25.618;2023-03-14T05:58:06;27.17;;;4.57;;
74415;SDS011;62850;42.428;25.618;2023-03-14T06:00:32;23.00;;;4.30;;
74415;SDS011;62850;42.428;25.618;2023-03-14T06:02:57;19.10;;;4.43;;
74415;SDS011;62850;42.428;25.618;2023-03-14T06:05:23;16.85;;;4.38;;
74415;SDS011;62850;42.428;25.618;2023-03-14T06:07:48;16.48;;;3.90;;
74415;SDS011;62850;42.428;25.618;2023-03-14T06:10:14;19.70;;;4.45;;
74415;SDS011;62850;42.428;25.618;2023-03-14T06:12:39;12.85;;;3.20;;
74415;SDS011;62850;42.428;25.618;2023-03-14T06:15:05;17.08;;;3.63;;
74415;SDS011;62850;42.428;25.618;2023-03-14T06:17:31;9.52;;;3.42;;
74415;SDS011;62850;42.428;25.618;2023-03-14T06:19:56;14.18;;;3.70;;
74415;SDS011;62850;42.428;25.618;2023-03-14T06:22:22;6.35;;;3.00;;
74415;SDS011;62850;42.428;25.618;2023-03-14T06:24:47;9.82;;;3.17;;
74415;SDS011;62850;42.428;25.618;2023-03-14T06:27:12;10.98;;;2.85;;
74415;SDS011;62850;42.428;25.618;2023-03-14T06:29:38;12.93;;;2.97;;
74415;SDS011;62850;42.428;25.618;2023-03-14T06:32:03;5.07;;;2.80;;
74415;SDS011;62850;42.428;25.618;2023-03-14T06:34:30;8.70;;;2.63;;
74415;SDS011;62850;42.428;25.618;2023-03-14T06:36:55;8.55;;;2.67;;
74415;SDS011;62850;42.428;25.618;2023-03-14T06:39:21;5.80;;;2.60;;
74415;SDS011;62850;42.428;25.618;2023-03-14T06:41:46;8.88;;;2.88;;
74415;SDS011;62850;42.428;25.618;2023-03-14T06:44:12;8.77;;;2.75;;
74415;SDS011;62850;42.428;25.618;2023-03-14T06:46:37;11.48;;;3.17;;
74415;SDS011;62850;42.428;25.618;2023-03-14T06:49:03;10.13;;;2.97;;
74415;SDS011;62850;42.428;25.618;2023-03-14T06:51:28;9.73;;;3.10;;
74415;SDS011;62850;42.428;25.618;2023-03-14T06:53:54;7.50;;;2.95;;
74415;SDS011;62850;42.428;25.618;2023-03-14T06:56:19;6.15;;;2.53;;
74415;SDS011;62850;42.428;25.618;2023-03-14T06:58:45;10.13;;;2.85;;
74415;SDS011;62850;42.428;25.618;2023-03-14T07:01:29;5.70;;;2.80;;
74415;SDS011;62850;42.428;25.618;2023-03-14T07:03:55;12.70;;;3.00;;
74415;SDS011;62850;42.428;25.618;2023-03-14T07:06:21;12.10;;;3.72;;
74415;SDS011;62850;42.428;25.618;2023-03-14T07:08:47;9.00;;;3.95;;
74415;SDS011;62850;42.428;25.618;2023-03-14T07:11:13;15.55;;;4.40;;
74415;SDS011;62850;42.428;25.618;2023-03-14T07:13:39;16.38;;;4.00;;
74415;SDS011;62850;42.428;25.618;2023-03-14T07:16:05;12.05;;;3.67;;
74415;SDS011;62850;42.428;25.618;2023-03-14T07:18:31;10.15;;;4.72;;
74415;SDS011;62850;42.428;25.618;2023-03-14T07:20:57;12.35;;;5.00;;
74415;SDS011;62850;42.428;25.618;2023-03-14T07:23:23;14.07;;;4.13;;
74415;SDS011;62850;42.428;25.618;2023-03-14T07:25:48;12.30;;;4.25;;
74415;SDS011;62850;42.428;25.618;2023-03-14T07:28:14;7.57;;;3.80;;
74415;SDS011;62850;42.428;25.618;2023-03-14T07:30:39;12.77;;;4.35;;
74415;SDS011;62850;42.428;25.618;2023-03-14T07:33:05;11.90;;;4.30;;
74415;SDS011;62850;42.428;25.618;2023-03-14T07:35:30;13.10;;;4.57;;
74415;SDS011;62850;42.428;25.618;2023-03-14T07:37:55;9.75;;;4.40;;
74415;SDS011;62850;42.428;25.618;2023-03-14T07:40:21;16.40;;;4.78;;
74415;SDS011;62850;42.428;25.618;2023-03-14T07:42:46;12.48;;;4.63;;
74415;SDS011;62850;42.428;25.618;2023-03-14T07:45:13;13.18;;;5.07;;
74415;SDS011;62850;42.428;25.618;2023-03-14T07:47:38;8.80;;;4.57;;
74415;SDS011;62850;42.428;25.618;2023-03-14T07:50:04;12.00;;;4.53;;
74415;SDS011;62850;42.428;25.618;2023-03-14T07:52:30;18.75;;;5.32;;
74415;SDS011;62850;42.428;25.618;2023-03-14T07:54:55;12.50;;;4.85;;
74415;SDS011;62850;42.428;25.618;2023-03-14T07:57:21;11.68;;;4.55;;
74415;SDS011;62850;42.428;25.618;2023-03-14T07:59:47;10.95;;;4.07;;
74415;SDS011;62850;42.428;25.618;2023-03-14T08:02:12;10.57;;;4.00;;
74415;SDS011;62850;42.428;25.618;2023-03-14T08:04:38;9.80;;;4.30;;
74415;SDS011;62850;42.428;25.618;2023-03-14T08:07:05;25.65;;;8.88;;
74415;SDS011;62850;42.428;25.618;2023-03-14T08:09:31;36.72;;;12.70;;
74415;SDS011;62850;42.428;25.618;2023-03-14T08:11:57;60.53;;;19.75;;
74415;SDS011;62850;42.428;25.618;2023-03-14T08:14:22;16.48;;;7.03;;
74415;SDS011;62850;42.428;25.618;2023-03-14T08:16:50;22.58;;;6.13;;
74415;SDS011;62850;42.428;25.618;2023-03-14T08:19:16;10.98;;;3.90;;
74415;SDS011;62850;42.428;25.618;2023-03-14T08:21:42;21.83;;;3.88;;
74415;SDS011;62850;42.428;25.618;2023-03-14T08:24:07;14.48;;;3.60;;
74415;SDS011;62850;42.428;25.618;2023-03-14T08:26:33;8.75;;;3.50;;
74415;SDS011;62850;42.428;25.618;2023-03-14T08:28:59;36.55;;;10.73;;
74415;SDS011;62850;42.428;25.618;2023-03-14T08:31:24;35.53;;;11.68;;
74415;SDS011;62850;42.428;25.618;2023-03-14T08:33:50;21.50;;;6.53;;
74415;SDS011;62850;42.428;25.618;2023-03-14T08:36:17;24.90;;;5.80;;
74415;SDS011;62850;42.428;25.618;2023-03-14T08:38:43;8.07;;;3.50;;
74415;SDS011;62850;42.428;25.618;2023-03-14T08:41:09;8.45;;;3.25;;
74415;SDS011;62850;42.428;25.618;2023-03-14T08:43:35;17.58;;;6.32;;
74415;SDS011;62850;42.428;25.618;2023-03-14T08:46:00;9.88;;;3.35;;
74415;SDS011;62850;42.428;25.618;2023-03-14T08:48:27;10.55;;;3.90;;
74415;SDS011;62850;42.428;25.618;2023-03-14T08:50:54;14.45;;;8.02;;
74415;SDS011;62850;42.428;25.618;2023-03-14T08:53:40;10.80;;;3.63;;
74415;SDS011;62850;42.428;25.618;2023-03-14T08:56:06;12.02;;;3.22;;
74415;SDS011;62850;42.428;25.618;2023-03-14T08:58:34;11.07;;;3.45;;
74415;SDS011;62850;42.428;25.618;2023-03-14T09:01:02;11.63;;;3.30;;
74415;SDS011;62850;42.428;25.618;2023-03-14T09:03:27;17.40;;;3.63;;
74415;SDS011;62850;42.428;25.618;2023-03-14T09:05:53;10.15;;;3.08;;
74415;SDS011;62850;42.428;25.618;2023-03-14T09:08:19;10.93;;;3.10;;
74415;SDS011;62850;42.428;25.618;2023-03-14T09:10:44;9.63;;;2.80;;
74415;SDS011;62850;42.428;25.618;2023-03-14T09:13:10;10.98;;;3.25;;
74415;SDS011;62850;42.428;25.618;2023-03-14T09:15:35;9.70;;;4.75;;
74415;SDS011;62850;42.428;25.618;2023-03-14T09:18:01;8.32;;;3.40;;
74415;SDS011;62850;42.428;25.618;2023-03-14T09:20:26;6.90;;;2.80;;
74415;SDS011;62850;42.428;25.618;2023-03-14T09:22:53;7.30;;;2.92;;
74415;SDS011;62850;42.428;25.618;2023-03-14T09:25:18;4.68;;;2.15;;
74415;SDS011;62850;42.428;25.618;2023-03-14T09:27:44;6.00;;;2.00;;
74415;SDS011;62850;42.428;25.618;2023-03-14T09:30:09;21.55;;;2.90;;
74415;SDS011;62850;42.428;25.618;2023-03-14T09:32:35;9.50;;;2.45;;
74415;SDS011;62850;42.428;25.618;2023-03-14T09:35:01;8.50;;;2.08;;
74415;SDS011;62850;42.428;25.618;2023-03-14T09:37:26;7.93;;;2.75;;
74415;SDS011;62850;42.428;25.618;2023-03-14T09:39:52;4.30;;;2.05;;
74415;SDS011;62850;42.428;25.618;2023-03-14T09:42:18;5.50;;;2.22;;
74415;SDS011;62850;42.428;25.618;2023-03-14T09:44:59;7.43;;;2.30;;
74415;SDS011;62850;42.428;25.618;2023-03-14T09:47:26;7.45;;;2.20;;
74415;SDS011;62850;42.428;25.618;2023-03-14T09:49:53;12.07;;;2.65;;
74415;SDS011;62850;42.428;25.618;2023-03-14T09:52:21;7.38;;;2.13;;
74415;SDS011;62850;42.428;25.618;2023-03-14T09:54:52;6.93;;;2.25;;
74415;SDS011;62850;42.428;25.618;2023-03-14T09:57:24;8.25;;;2.25;;
74415;SDS011;62850;42.428;25.618;2023-03-14T09:59:51;4.65;;;2.22;;
74415;SDS011;62850;42.428;25.618;2023-03-14T10:02:20;7.57;;;2.08;;
74415;SDS011;62850;42.428;25.618;2023-03-14T10:04:48;8.23;;;1.92;;
74415;SDS011;62850;42.428;25.618;2023-03-14T10:07:15;7.45;;;2.20;;
74415;SDS011;62850;42.428;25.618;2023-03-14T10:09:48;5.43;;;1.95;;
74415;SDS011;62850;42.428;25.618;2023-03-14T10:12:15;9.60;;;2.05;;
74415;SDS011;62850;42.428;25.618;2023-03-14T10:14:46;4.20;;;2.00;;
74415;SDS011;62850;42.428;25.618;2023-03-14T10:17:14;7.68;;;2.33;;
74415;SDS011;62850;42.428;25.618;2023-03-14T10:19:55;7.65;;;2.15;;
74415;SDS011;62850;42.428;25.618;2023-03-14T10:22:29;5.47;;;2.20;;
74415;SDS011;62850;42.428;25.618;2023-03-14T10:25:00;7.32;;;2.25;;
74415;SDS011;62850;42.428;25.618;2023-03-14T10:27:29;10.35;;;2.47;;
74415;SDS011;62850;42.428;25.618;2023-03-14T10:29:57;7.03;;;2.30;;
74415;SDS011;62850;42.428;25.618;2023-03-14T10:32:42;7.47;;;2.20;;
74415;SDS011;62850;42.428;25.618;2023-03-14T10:40:39;6.10;;;2.35;;
74415;SDS011;62850;42.428;25.618;2023-03-14T10:43:13;4.93;;;2.05;;
74415;SDS011;62850;42.428;25.618;2023-03-14T10:45:44;6.28;;;2.45;;
74415;SDS011;62850;42.428;25.618;2023-03-14T10:48:20;5.43;;;2.20;;
74415;SDS011;62850;42.428;25.618;2023-03-14T10:50:54;5.15;;;2.42;;
74415;SDS011;62850;42.428;25.618;2023-03-14T10:53:42;7.20;;;2.63;;
74415;SDS011;62850;42.428;25.618;2023-03-14T10:56:11;7.55;;;2.05;;
74415;SDS011;62850;42.428;25.618;2023-03-14T10:58:48;5.18;;;2.20;;
74415;SDS011;62850;42.428;25.618;2023-03-14T11:04:18;7.18;;;2.25;;
74415;SDS011;62850;42.428;25.618;2023-03-14T11:06:53;8.60;;;2.40;;
74415;SDS011;62850;42.428;25.618;2023-03-14T11:09:38;5.78;;;2.30;;
74415;SDS011;62850;42.428;25.618;2023-03-14T11:14:53;5.03;;;2.38;;
74415;SDS011;62850;42.428;25.618;2023-03-14T11:17:38;6.05;;;2.55;;
74415;SDS011;62850;42.428;25.618;2023-03-14T11:20:24;11.05;;;2.10;;
74415;SDS011;62850;42.428;25.618;2023-03-14T11:25:43;6.35;;;2.40;;
74415;SDS011;62850;42.428;25.618;2023-03-14T11:36:59;7.10;;;2.53;;
74415;SDS011;62850;42.428;25.618;2023-03-14T11:39:29;5.40;;;2.30;;
74415;SDS011;62850;42.428;25.618;2023-03-14T11:42:04;6.32;;;2.63;;
74415;SDS011;62850;42.428;25.618;2023-03-14T11:44:37;13.25;;;2.92;;
74415;SDS011;62850;42.428;25.618;2023-03-14T11:49:51;6.50;;;2.55;;
74415;SDS011;62850;42.428;25.618;2023-03-14T11:55:13;8.75;;;2.67;;
74415;SDS011;62850;42.428;25.618;2023-03-14T11:57:42;13.93;;;3.10;;
74415;SDS011;62850;42.428;25.618;2023-03-14T12:08:50;13.27;;;2.70;;
74415;SDS011;62850;42.428;25.618;2023-03-14T12:14:43;6.68;;;2.30;;
74415;SDS011;62850;42.428;25.618;2023-03-14T12:17:21;5.95;;;2.50;;
74415;SDS011;62850;42.428;25.618;2023-03-14T12:22:43;10.25;;;2.92;;
74415;SDS011;62850;42.428;25.618;2023-03-14T12:27:45;10.50;;;2.53;;
74415;SDS011;62850;42.428;25.618;2023-03-14T12:30:36;10.23;;;3.03;;
74415;SDS011;62850;42.428;25.618;2023-03-14T12:38:09;9.70;;;2.67;;
74415;SDS011;62850;42.428;25.618;2023-03-14T12:40:58;5.78;;;2.40;;
74415;SDS011;62850;42.428;25.618;2023-03-14T12:43:27;6.80;;;2.65;;
74415;SDS011;62850;42.428;25.618;2023-03-14T12:46:08;8.80;;;2.70;;
74415;SDS011;62850;42.428;25.618;2023-03-14T12:51:03;4.60;;;2.20;;
74415;SDS011;62850;42.428;25.618;2023-03-14T12:56:36;5.80;;;2.08;;
74415;SDS011;62850;42.428;25.618;2023-03-14T12:59:39;7.47;;;2.42;;
74415;SDS011;62850;42.428;25.618;2023-03-14T13:02:17;8.23;;;2.30;;
74415;SDS011;62850;42.428;25.618;2023-03-14T13:04:46;6.47;;;2.60;;
74415;SDS011;62850;42.428;25.618;2023-03-14T13:15:29;5.90;;;2.17;;
74415;SDS011;62850;42.428;25.618;2023-03-14T13:21:03;9.73;;;2.08;;
74415;SDS011;62850;42.428;25.618;2023-03-14T13:23:35;8.65;;;2.03;;
74415;SDS011;62850;42.428;25.618;2023-03-14T13:26:02;9.65;;;2.55;;
74415;SDS011;62850;42.428;25.618;2023-03-14T13:28:28;6.38;;;2.08;;
74415;SDS011;62850;42.428;25.618;2023-03-14T13:31:01;5.80;;;2.45;;
74415;SDS011;62850;42.428;25.618;2023-03-14T13:33:28;6.22;;;2.00;;
74415;SDS011;62850;42.428;25.618;2023-03-14T13:38:21;8.05;;;1.98;;
74415;SDS011;62850;42.428;25.618;2023-03-14T13:40:50;5.93;;;1.80;;
74415;SDS011;62850;42.428;25.618;2023-03-14T13:45:56;4.97;;;1.80;;
74415;SDS011;62850;42.428;25.618;2023-03-14T13:48:26;6.80;;;1.70;;
74415;SDS011;62850;42.428;25.618;2023-03-14T13:51:04;7.70;;;1.92;;
74415;SDS011;62850;42.428;25.618;2023-03-14T13:53:32;5.68;;;1.80;;
74415;SDS011;62850;42.428;25.618;2023-03-14T13:56:08;5.15;;;1.45;;
74415;SDS011;62850;42.428;25.618;2023-03-14T13:58:35;6.03;;;2.00;;
74415;SDS011;62850;42.428;25.618;2023-03-14T14:01:06;114.85;;;8.32;;
74415;SDS011;62850;42.428;25.618;2023-03-14T14:03:39;97.80;;;7.70;;
74415;SDS011;62850;42.428;25.618;2023-03-14T14:06:08;31.17;;;3.78;;
74415;SDS011;62850;42.428;25.618;2023-03-14T14:08:47;16.80;;;2.55;;
74415;SDS011;62850;42.428;25.618;2023-03-14T14:11:28;11.60;;;2.50;;
74415;SDS011;62850;42.428;25.618;2023-03-14T14:14:03;4.78;;;1.90;;
74415;SDS011;62850;42.428;25.618;2023-03-14T14:16:31;4.80;;;1.83;;
74415;SDS011;62850;42.428;25.618;2023-03-14T14:18:56;7.07;;;2.58;;
74415;SDS011;62850;42.428;25.618;2023-03-14T14:21:23;10.32;;;1.95;;
74415;SDS011;62850;42.428;25.618;2023-03-14T14:23:50;9.93;;;2.22;;
74415;SDS011;62850;42.428;25.618;2023-03-14T14:26:16;9.65;;;2.00;;
74415;SDS011;62850;42.428;25.618;2023-03-14T14:28:43;7.85;;;2.33;;
74415;SDS011;62850;42.428;25.618;2023-03-14T14:33:52;10.93;;;2.20;;
74415;SDS011;62850;42.428;25.618;2023-03-14T14:36:38;10.73;;;2.30;;
74415;SDS011;62850;42.428;25.618;2023-03-14T14:39:09;10.65;;;2.40;;
74415;SDS011;62850;42.428;25.618;2023-03-14T14:41:40;12.40;;;2.25;;
74415;SDS011;62850;42.428;25.618;2023-03-14T14:44:07;7.70;;;2.10;;
74415;SDS011;62850;42.428;25.618;2023-03-14T14:46:36;9.93;;;2.35;;
74415;SDS011;62850;42.428;25.618;2023-03-14T14:49:08;10.65;;;2.17;;
74415;SDS011;62850;42.428;25.618;2023-03-14T14:51:42;8.10;;;2.13;;
74415;SDS011;62850;42.428;25.618;2023-03-14T14:54:35;6.35;;;1.80;;
74415;SDS011;62850;42.428;25.618;2023-03-14T14:57:04;10.85;;;2.30;;
74415;SDS011;62850;42.428;25.618;2023-03-14T14:59:42;8.65;;;2.22;;
74415;SDS011;62850;42.428;25.618;2023-03-14T15:02:28;10.52;;;2.22;;
74415;SDS011;62850;42.428;25.618;2023-03-14T15:04:57;9.60;;;2.00;;
74415;SDS011;62850;42.428;25.618;2023-03-14T15:07:23;14.57;;;2.30;;
74415;SDS011;62850;42.428;25.618;2023-03-14T15:09:48;8.55;;;2.05;;
74415;SDS011;62850;42.428;25.618;2023-03-14T15:12:14;7.25;;;1.90;;
74415;SDS011;62850;42.428;25.618;2023-03-14T15:14:39;10.48;;;2.00;;
74415;SDS011;62850;42.428;25.618;2023-03-14T15:17:05;12.85;;;2.47;;
74415;SDS011;62850;42.428;25.618;2023-03-14T15:19:34;9.23;;;2.40;;
74415;SDS011;62850;42.428;25.618;2023-03-14T15:21:59;9.65;;;2.50;;
74415;SDS011;62850;42.428;25.618;2023-03-14T15:24:25;7.55;;;2.40;;
74415;SDS011;62850;42.428;25.618;2023-03-14T15:26:51;6.32;;;2.00;;
74415;SDS011;62850;42.428;25.618;2023-03-14T15:29:16;8.65;;;2.47;;
74415;SDS011;62850;42.428;25.618;2023-03-14T15:31:42;6.25;;;2.17;;
74415;SDS011;62850;42.428;25.618;2023-03-14T15:34:09;9.55;;;2.40;;
74415;SDS011;62850;42.428;25.618;2023-03-14T15:36:35;8.77;;;2.30;;
74415;SDS011;62850;42.428;25.618;2023-03-14T15:39:02;11.60;;;2.65;;
74415;SDS011;62850;42.428;25.618;2023-03-14T15:41:29;12.55;;;2.70;;
74415;SDS011;62850;42.428;25.618;2023-03-14T15:43:55;10.20;;;2.70;;
74415;SDS011;62850;42.428;25.618;2023-03-14T15:46:21;10.30;;;2.42;;
74415;SDS011;62850;42.428;25.618;2023-03-14T15:48:47;11.43;;;3.15;;
74415;SDS011;62850;42.428;25.618;2023-03-14T15:51:14;7.93;;;2.38;;
74415;SDS011;62850;42.428;25.618;2023-03-14T15:53:40;10.73;;;2.70;;
74415;SDS011;62850;42.428;25.618;2023-03-14T15:56:10;8.02;;;3.65;;